Time;durP1;ratioP1;P1;durP2;ratioP2;P2;SDS_P1;SDS_P2;PMS_P1;PMS_P2;Temp;Humidity;BMP_temperature;BMP_pressure;BME280_temperature;BME280_humidity;BME280_pressure;Samples;Min_cycle;Max_cycle;Signal;HPM_P1;HPM_P2
2024/02/10 00:02:03;;;;;;;2.50;1.50;;;;;;;17.45;54.18;98343.41;4916984;29;20114;-64
2024/02/10 00:04:30;;;;;;;3.70;1.52;;;;;;;17.47;53.92;98345.88;4915781;29;20036;-65
2024/02/10 00:06:56;;;;;;;4.38;1.67;;;;;;;17.48;53.56;98359.16;4916444;29;20028;-64
2024/02/10 00:09:22;;;;;;;6.38;1.83;;;;;;;17.49;53.69;98351.88;4915609;29;20033;-65
2024/02/10 00:11:47;;;;;;;3.45;1.52;;;;;;;17.51;53.85;98347.03;4899173;29;20143;-64
2024/02/10 00:14:13;;;;;;;2.88;1.55;;;;;;;17.54;54.35;98352.03;4899714;29;20071;-64
2024/02/10 00:16:41;;;;;;;3.05;1.25;;;;;;;17.57;53.89;98348.03;4915361;29;20036;-64
2024/02/10 00:19:09;;;;;;;2.05;1.42;;;;;;;17.56;53.78;98341.78;4916534;29;20033;-64
2024/02/10 00:21:35;;;;;;;4.53;1.42;;;;;;;17.60;53.93;98345.69;4916376;29;20107;-64
2024/02/10 00:24:02;;;;;;;3.83;1.73;;;;;;;17.62;54.33;98346.25;4915337;29;20566;-64
2024/02/10 00:26:27;;;;;;;3.15;1.90;;;;;;;17.66;53.65;98344.75;4890511;29;20099;-65
2024/02/10 00:28:58;;;;;;;3.67;1.45;;;;;;;17.70;54.55;98337.78;4915143;29;20040;-64
2024/02/10 00:31:24;;;;;;;2.92;1.38;;;;;;;17.73;53.82;98345.44;4900021;29;20020;-64
2024/02/10 00:33:52;;;;;;;2.55;1.23;;;;;;;17.76;54.08;98352.25;4915418;29;20095;-64
2024/02/10 00:36:18;;;;;;;1.48;1.30;;;;;;;17.78;53.77;98353.66;4915096;29;20421;-64
2024/02/10 00:38:44;;;;;;;1.73;1.38;;;;;;;17.82;53.78;98354.84;4898308;29;20060;-65
2024/02/10 00:41:13;;;;;;;3.17;1.60;;;;;;;17.83;53.98;98344.84;4914765;29;20064;-64
2024/02/10 00:43:45;;;;;;;3.67;1.40;;;;;;;17.84;53.91;98346.47;4914994;29;20028;-64
2024/02/10 00:46:15;;;;;;;6.90;1.65;;;;;;;17.82;53.90;98344.03;4914849;29;20028;-65
2024/02/10 00:48:41;;;;;;;2.33;1.55;;;;;;;17.83;53.93;98344.84;4914780;29;20111;-64
2024/02/10 00:51:06;;;;;;;5.65;1.48;;;;;;;17.85;53.70;98348.97;4916140;29;20506;-64
2024/02/10 00:53:42;;;;;;;2.25;1.25;;;;;;;17.85;53.58;98340.03;4915048;29;20040;-64
2024/02/10 00:56:11;;;;;;;5.78;1.33;;;;;;;17.86;53.82;98342.50;4900364;29;20135;-64
2024/02/10 00:58:40;;;;;;;9.30;1.27;;;;;;;17.89;54.04;98336.63;4899624;29;20111;-64
2024/02/10 01:01:10;;;;;;;2.70;1.17;;;;;;;17.88;53.96;98343.09;4914941;29;20072;-65
2024/02/10 01:03:37;;;;;;;2.65;1.00;;;;;;;17.89;53.76;98333.09;4914705;29;20527;-64
2024/02/10 01:06:05;;;;;;;2.42;1.23;;;;;;;17.88;54.17;98337.66;4914647;29;20032;-65
2024/02/10 01:08:30;;;;;;;1.80;1.25;;;;;;;17.87;53.74;98332.47;4916059;29;20534;-64
2024/02/10 01:10:55;;;;;;;3.75;1.60;;;;;;;17.85;53.55;98332.72;4914808;29;20135;-64
2024/02/10 01:13:21;;;;;;;4.63;1.13;;;;;;;17.86;53.24;98334.38;4914544;29;20472;-65
2024/02/10 01:15:50;;;;;;;2.45;1.40;;;;;;;17.85;54.02;98326.47;4915960;29;20039;-64
2024/02/10 01:18:17;;;;;;;2.25;1.65;;;;;;;17.85;53.57;98332.72;4914884;29;20043;-65
2024/02/10 01:20:43;;;;;;;6.88;1.35;;;;;;;17.86;53.63;98334.38;4914653;29;20385;-65
2024/02/10 01:23:11;;;;;;;2.60;1.40;;;;;;;17.87;53.89;98333.31;4915603;29;20149;-65
2024/02/10 01:25:36;;;;;;;1.80;1.52;;;;;;;17.87;53.71;98336.00;4902743;29;20040;-64
2024/02/10 01:28:02;;;;;;;2.53;1.20;;;;;;;17.84;53.71;98333.78;4919366;29;20040;-65
2024/02/10 01:30:28;;;;;;;3.72;1.60;;;;;;;17.86;53.45;98336.25;4919656;29;20087;-64
2024/02/10 01:32:57;;;;;;;3.17;1.45;;;;;;;17.89;54.11;98336.63;4917822;29;20453;-64
2024/02/10 01:35:23;;;;;;;2.75;1.20;;;;;;;17.88;53.74;98340.38;4917995;29;20111;-64
2024/02/10 01:37:49;;;;;;;1.60;1.10;;;;;;;17.86;53.95;98341.69;4917810;29;20051;-64
2024/02/10 01:40:16;;;;;;;1.70;0.90;;;;;;;17.82;53.75;98337.78;4917484;29;20040;-65
2024/02/10 01:42:42;;;;;;;6.10;1.52;;;;;;;17.81;53.74;98338.88;4918983;29;20032;-64
2024/02/10 01:45:11;;;;;;;2.17;1.13;;;;;;;17.75;54.08;98332.50;4917684;29;20111;-64
2024/02/10 01:47:37;;;;;;;3.35;1.33;;;;;;;17.77;53.58;98340.38;4917343;29;20095;-64
2024/02/10 01:50:04;;;;;;;4.10;1.23;;;;;;;17.75;53.27;98340.63;4917567;29;20216;-64
2024/02/10 01:52:30;;;;;;;3.20;0.98;;;;;;;17.78;53.08;98347.47;4917377;29;20043;-65
2024/02/10 01:54:56;;;;;;;2.28;0.82;;;;;;;17.71;53.46;98338.59;4901711;29;20036;-64
2024/02/10 01:57:22;;;;;;;1.65;1.10;;;;;;;17.76;53.23;98347.69;4918584;29;20035;-64
2024/02/10 01:59:47;;;;;;;2.28;0.95;;;;;;;17.76;53.09;98341.44;4918489;29;20123;-65
2024/02/10 02:02:14;;;;;;;1.55;0.90;;;;;;;17.76;53.66;98352.25;4917241;29;20040;-65
2024/02/10 02:04:40;;;;;;;1.73;1.08;;;;;;;17.73;53.39;98347.31;4918876;29;20032;-64
2024/02/10 02:07:08;;;;;;;1.33;0.73;;;;;;;17.71;52.89;98346.72;4901949;29;20119;-64
2024/02/10 02:09:34;;;;;;;3.10;0.90;;;;;;;17.66;53.60;98344.75;4918388;29;20046;-64
2024/02/10 02:12:06;;;;;;;2.25;1.00;;;;;;;17.62;53.31;98343.56;4917705;29;20036;-64
2024/02/10 02:14:39;;;;;;;2.25;0.93;;;;;;;17.61;53.45;98339.22;4917179;29;20043;-64
2024/02/10 02:17:05;;;;;;;2.88;1.08;;;;;;;17.62;52.99;98329.19;4916948;29;20035;-64
2024/02/10 02:19:40;;;;;;;2.20;0.82;;;;;;;17.61;52.69;98333.81;4917050;29;20047;-64
2024/02/10 02:22:09;;;;;;;3.45;1.60;;;;;;;17.58;53.40;98334.28;4918422;29;20115;-64
2024/02/10 02:24:34;;;;;;;4.47;1.25;;;;;;;17.56;52.49;98322.84;4917124;29;20504;-64
2024/02/10 02:27:00;;;;;;;3.42;1.25;;;;;;;17.55;53.04;98332.03;4918371;29;20047;-64
2024/02/10 02:29:26;;;;;;;2.05;1.30;;;;;;;17.53;52.78;98326.00;4918584;29;20584;-64
2024/02/10 02:31:58;;;;;;;4.13;1.10;;;;;;;17.53;52.62;98328.72;4902120;29;20135;-64
2024/02/10 02:34:25;;;;;;;6.82;1.33;;;;;;;17.52;53.37;98335.19;4919108;29;20060;-64
2024/02/10 02:36:52;;;;;;;1.83;1.00;;;;;;;17.52;53.25;98332.47;4918735;29;20476;-64
2024/02/10 02:39:18;;;;;;;3.83;1.45;;;;;;;17.48;52.98;98325.88;4902650;29;20131;-65
2024/02/10 02:41:43;;;;;;;2.10;0.73;;;;;;;17.44;52.71;98324.69;4885642;29;20059;-64
2024/02/10 02:44:14;;;;;;;4.43;0.90;;;;;;;17.41;52.87;98330.56;4901552;29;20563;-64
2024/02/10 02:46:43;;;;;;;1.27;0.77;;;;;;;17.37;52.76;98323.97;4917778;29;20048;-64
2024/02/10 02:49:09;;;;;;;1.60;1.00;;;;;;;17.36;53.08;98322.34;4916945;29;20036;-65
2024/02/10 02:51:35;;;;;;;3.10;1.30;;;;;;;17.31;52.68;98320.31;4917529;29;20092;-64
2024/02/10 02:54:04;;;;;;;1.70;1.05;;;;;;;17.32;52.68;98332.81;4916658;29;20111;-64
2024/02/10 02:56:30;;;;;;;1.42;0.88;;;;;;;17.32;52.96;98323.84;4917538;29;20028;-65
2024/02/10 02:58:56;;;;;;;4.50;1.10;;;;;;;17.28;53.11;98328.91;4900315;29;20039;-64
2024/02/10 03:01:22;;;;;;;1.52;1.00;;;;;;;17.27;52.87;98318.31;4916188;29;20097;-65
2024/02/10 03:03:50;;;;;;;3.47;1.10;;;;;;;17.25;53.43;98315.03;4916195;29;20039;-65
2024/02/10 03:06:19;;;;;;;5.20;1.00;;;;;;;17.27;52.69;98318.31;4916575;29;20020;-64
2024/02/10 03:08:47;;;;;;;2.05;0.82;;;;;;;17.28;52.26;98319.97;4918754;29;20035;-65
2024/02/10 03:11:19;;;;;;;6.38;1.27;;;;;;;17.28;53.36;98318.06;4916267;29;20069;-64
2024/02/10 03:13:48;;;;;;;1.77;0.80;;;;;;;17.28;53.43;98309.97;4900664;29;20457;-65
2024/02/10 03:16:15;;;;;;;4.70;1.80;;;;;;;17.28;52.73;98306.44;4915972;29;20516;-64
2024/02/10 03:18:45;;;;;;;0.95;0.70;;;;;;;17.28;52.98;98306.44;4915926;29;20036;-64
2024/02/10 03:21:13;;;;;;;0.95;0.50;;;;;;;17.27;52.41;98315.63;4915794;29;20048;-64
2024/02/10 03:23:39;;;;;;;1.40;1.02;;;;;;;17.25;52.27;98298.81;4915811;29;20377;-67
2024/02/10 03:26:05;;;;;;;1.52;0.70;;;;;;;17.25;52.42;98306.91;4915634;29;20047;-66
2024/02/10 03:28:33;;;;;;;1.67;0.70;;;;;;;17.24;52.56;98307.97;4915880;29;20521;-66
2024/02/10 03:31:00;;;;;;;1.80;0.70;;;;;;;17.19;52.70;98305.16;4917134;29;20036;-67
2024/02/10 03:33:26;;;;;;;1.20;0.60;;;;;;;17.19;52.68;98311.38;4915788;29;20037;-67
2024/02/10 03:35:53;;;;;;;2.67;0.73;;;;;;;17.17;51.98;98301.84;4915803;29;20036;-66
2024/02/10 03:38:20;;;;;;;1.45;0.95;;;;;;;17.17;52.56;98301.84;4915413;29;20036;-66
2024/02/10 03:40:46;;;;;;;1.25;0.68;;;;;;;17.16;53.15;98294.78;4899885;29;20115;-66
2024/02/10 03:43:12;;;;;;;1.13;0.77;;;;;;;17.14;52.51;98294.19;4914718;29;20107;-66
2024/02/10 03:45:37;;;;;;;0.88;0.73;;;;;;;17.14;52.33;98292.28;4915098;29;20496;-67
2024/02/10 03:48:04;;;;;;;2.15;0.77;;;;;;;17.16;52.69;98300.19;4915369;29;20056;-67
2024/02/10 03:50:30;;;;;;;2.33;0.75;;;;;;;17.14;51.92;98299.63;4915889;29;20055;-66
2024/02/10 03:52:57;;;;;;;3.33;1.58;;;;;;;17.12;53.08;98301.69;4915444;29;20123;-66
2024/02/10 03:55:23;;;;;;;3.33;1.20;;;;;;;17.12;52.33;98299.00;4915512;29;20036;-66
2024/02/10 03:57:53;;;;;;;1.15;0.93;;;;;;;17.13;52.17;98306.06;4916926;29;20036;-66
2024/02/10 04:00:26;;;;;;;1.45;0.68;;;;;;;17.11;52.23;98303.63;4915566;29;20040;-66
2024/02/10 04:02:52;;;;;;;0.65;0.50;;;;;;;17.10;52.05;98301.13;4915596;29;20498;-67
2024/02/10 04:05:18;;;;;;;1.77;0.60;;;;;;;17.09;51.76;98300.28;4915542;29;20044;-67
2024/02/10 04:07:49;;;;;;;1.80;0.75;;;;;;;17.07;51.82;98298.88;4899484;29;20500;-67
2024/02/10 04:10:15;;;;;;;2.38;1.48;;;;;;;17.04;52.71;98299.34;4915282;29;20037;-66
2024/02/10 04:12:41;;;;;;;3.42;0.90;;;;;;;17.00;51.92;98290.06;4915234;29;20044;-66
2024/02/10 04:15:11;;;;;;;1.60;0.95;;;;;;;16.96;51.55;98299.69;4899634;29;20506;-66
2024/02/10 04:17:37;;;;;;;1.95;1.00;;;;;;;16.93;52.03;98300.16;4916700;29;20044;-66
2024/02/10 04:20:03;;;;;;;0.98;0.60;;;;;;;16.88;52.07;98306.25;4916370;29;20048;-66
2024/02/10 04:22:28;;;;;;;2.47;1.20;;;;;;;16.86;52.30;98308.38;4916551;29;20496;-66
2024/02/10 04:24:57;;;;;;;1.23;0.75;;;;;;;16.82;52.03;98302.59;4899450;29;20043;-67
2024/02/10 04:27:22;;;;;;;2.20;1.10;;;;;;;16.82;51.99;98299.06;4916620;29;20135;-65
2024/02/10 04:29:48;;;;;;;2.67;1.00;;;;;;;16.79;51.40;98297.66;4916229;29;20036;-66
2024/02/10 04:32:14;;;;;;;2.35;0.88;;;;;;;16.77;52.35;98307.88;4916298;29;20040;-66
2024/02/10 04:34:40;;;;;;;3.33;0.70;;;;;;;16.74;51.35;98302.09;4916429;29;20036;-64
2024/02/10 04:37:06;;;;;;;1.48;0.98;;;;;;;16.72;51.63;98307.72;4916344;29;20123;-64
2024/02/10 04:39:31;;;;;;;3.70;0.80;;;;;;;16.65;51.64;98301.59;4915257;29;20127;-63
2024/02/10 04:41:56;;;;;;;2.03;0.95;;;;;;;16.66;50.88;98311.38;4899193;29;20092;-64
2024/02/10 04:44:22;;;;;;;1.38;0.88;;;;;;;16.61;51.39;98311.22;4916114;29;20500;-64
2024/02/10 04:46:47;;;;;;;1.05;0.90;;;;;;;16.61;51.56;98318.53;4899578;29;20457;-64
2024/02/10 04:49:12;;;;;;;6.80;1.10;;;;;;;16.59;51.77;98317.91;4917910;29;20036;-64
2024/02/10 04:51:40;;;;;;;2.72;1.10;;;;;;;16.58;51.29;98317.06;4917133;29;20504;-64
2024/02/10 04:54:07;;;;;;;1.65;1.00;;;;;;;16.55;51.41;98309.44;4935123;29;20055;-64
2024/02/10 04:56:33;;;;;;;1.80;0.63;;;;;;;16.56;52.55;98312.94;4918170;29;20043;-64
2024/02/10 04:59:00;;;;;;;2.08;0.90;;;;;;;16.52;51.64;98303.63;4920288;29;20043;-64
2024/02/10 05:01:32;;;;;;;3.65;0.88;;;;;;;16.48;52.14;98303.25;4921451;29;20091;-64
2024/02/10 05:03:57;;;;;;;1.40;0.98;;;;;;;16.47;52.21;98300.81;4921583;29;20043;-64
2024/02/10 05:06:23;;;;;;;1.73;0.90;;;;;;;16.44;52.01;98303.97;4938465;29;20040;-65
2024/02/10 05:08:49;;;;;;;2.15;1.33;;;;;;;16.38;51.08;98299.47;4905511;29;20048;-64
2024/02/10 05:11:14;;;;;;;3.22;0.95;;;;;;;16.37;51.22;98314.00;4921181;29;20062;-65
2024/02/10 05:13:40;;;;;;;1.15;1.02;;;;;;;16.32;51.05;98314.72;4938372;29;20118;-64
2024/02/10 05:16:05;;;;;;;1.95;1.02;;;;;;;16.30;51.98;98317.63;4921248;29;20032;-64
2024/02/10 05:18:31;;;;;;;1.35;0.77;;;;;;;16.24;51.45;98318.56;4905637;29;20115;-65
2024/02/10 05:21:00;;;;;;;6.03;1.13;;;;;;;16.25;51.87;98322.06;4905423;29;20111;-63
2024/02/10 05:23:25;;;;;;;1.67;1.20;;;;;;;16.20;51.03;98321.91;4921096;29;20039;-65
2024/02/10 05:25:50;;;;;;;1.50;0.90;;;;;;;16.18;51.22;98324.03;4905261;29;20036;-64
2024/02/10 05:28:16;;;;;;;0.95;0.60;;;;;;;16.14;51.37;98317.41;4921175;29;20070;-64
2024/02/10 05:30:41;;;;;;;3.17;1.08;;;;;;;16.09;50.45;98318.09;4937825;29;20127;-64
2024/02/10 05:33:07;;;;;;;1.60;0.90;;;;;;;16.01;51.22;98317.59;4921286;29;20047;-64
2024/02/10 05:35:33;;;;;;;1.65;0.70;;;;;;;15.97;51.08;98321.81;4920888;29;20428;-64
2024/02/10 05:38:02;;;;;;;2.65;0.88;;;;;;;15.95;51.48;98324.72;4920775;29;20040;-64
2024/02/10 05:40:28;;;;;;;1.27;0.82;;;;;;;15.91;51.90;98325.41;4937904;29;20032;-64
2024/02/10 05:42:58;;;;;;;3.95;0.82;;;;;;;15.86;51.73;98325.22;4920754;29;20411;-65
2024/02/10 05:45:24;;;;;;;2.25;0.90;;;;;;;15.81;50.96;98325.06;4905547;29;20522;-64
2024/02/10 05:47:51;;;;;;;1.48;0.80;;;;;;;15.78;51.67;98330.91;4937559;29;20048;-64
2024/02/10 05:50:22;;;;;;;1.92;1.00;;;;;;;15.72;51.64;98322.66;4937765;29;20107;-64
2024/02/10 05:52:49;;;;;;;1.73;0.95;;;;;;;15.70;52.08;98332.03;4938967;29;20024;-64
2024/02/10 05:55:25;;;;;;;2.35;1.02;;;;;;;15.65;50.36;98339.97;4939196;29;20031;-64
2024/02/10 05:57:55;;;;;;;2.67;0.95;;;;;;;15.58;51.87;98340.03;4922104;29;20039;-64
2024/02/10 06:00:21;;;;;;;4.30;0.98;;;;;;;15.55;51.03;98340.47;4922594;29;20484;-63
2024/02/10 06:02:47;;;;;;;1.10;0.68;;;;;;;15.51;52.09;98336.59;4922389;29;20483;-64
2024/02/10 06:05:14;;;;;;;0.93;0.93;;;;;;;15.47;51.18;98343.47;4921476;29;20110;-64
2024/02/10 06:07:41;;;;;;;2.60;0.85;;;;;;;15.42;51.56;98340.56;4920512;29;20400;-63
2024/02/10 06:10:09;;;;;;;1.20;1.00;;;;;;;15.34;50.76;98342.72;4920022;29;20047;-63
2024/02/10 06:12:55;;;;;;;1.30;1.00;;;;;;;15.31;52.00;98346.69;4920168;29;20522;-63
2024/02/10 06:15:20;;;;;;;1.13;0.90;;;;;;;15.25;51.16;98347.56;4919941;29;20058;-63
2024/02/10 06:17:54;;;;;;;1.60;0.85;;;;;;;15.22;51.63;98352.56;4904596;29;20102;-63
2024/02/10 06:20:22;;;;;;;0.82;0.70;;;;;;;15.15;50.36;98352.63;4920159;29;20047;-63
2024/02/10 06:22:52;;;;;;;5.03;0.90;;;;;;;15.13;50.85;98352.03;4920944;29;20032;-63
2024/02/10 06:25:22;;;;;;;2.50;0.80;;;;;;;15.03;50.86;98335.50;4904433;29;20035;-63
2024/02/10 06:27:52;;;;;;;0.85;0.75;;;;;;;15.08;51.70;98349.16;4920695;29;20039;-64
2024/02/10 06:30:18;;;;;;;3.90;0.95;;;;;;;15.03;51.54;98346.28;4938031;29;20087;-63
2024/02/10 06:32:43;;;;;;;1.10;1.00;;;;;;;15.07;51.67;98358.31;4921981;29;20040;-63
2024/02/10 06:35:10;;;;;;;1.52;0.90;;;;;;;15.08;51.06;98359.94;4922352;29;20032;-63
2024/02/10 06:37:42;;;;;;;4.00;0.90;;;;;;;15.08;51.58;98359.94;4920033;29;20086;-63
2024/02/10 06:40:08;;;;;;;2.45;1.00;;;;;;;15.07;52.11;98363.69;4920871;29;20039;-63
2024/02/10 06:42:37;;;;;;;3.53;1.27;;;;;;;15.04;51.88;98359.56;4936798;29;20039;-63
2024/02/10 06:45:11;;;;;;;6.88;0.90;;;;;;;15.08;51.35;98370.72;4936448;29;20420;-63
2024/02/10 06:47:36;;;;;;;1.45;1.08;;;;;;;15.08;52.23;98371.56;4920463;29;20161;-63
2024/02/10 06:50:04;;;;;;;2.67;0.95;;;;;;;15.10;51.17;98374.03;4919486;29;20040;-63
2024/02/10 06:52:36;;;;;;;1.20;1.10;;;;;;;15.12;51.63;98383.56;4903669;29;20538;-63
2024/02/10 06:55:02;;;;;;;1.80;1.05;;;;;;;15.15;51.16;98376.91;4916060;29;20044;-63
2024/02/10 06:57:29;;;;;;;1.67;0.70;;;;;;;15.14;51.13;98376.06;4903595;29;20363;-63
2024/02/10 06:59:54;;;;;;;1.38;0.63;;;;;;;15.21;52.09;98388.69;4903873;29;20036;-63
2024/02/10 07:02:20;;;;;;;0.82;0.50;;;;;;;15.22;51.41;98385.75;4919210;29;20044;-63
2024/02/10 07:04:52;;;;;;;1.40;0.90;;;;;;;15.25;52.45;98393.41;4919327;29;20103;-63
2024/02/10 07:07:18;;;;;;;1.33;0.80;;;;;;;15.27;51.46;98394.00;4935479;29;20233;-63
2024/02/10 07:09:44;;;;;;;2.30;1.20;;;;;;;15.32;52.57;98410.41;4936511;29;20083;-63
2024/02/10 07:12:09;;;;;;;1.02;0.93;;;;;;;15.36;51.94;98411.59;4918948;29;20044;-63
2024/02/10 07:14:35;;;;;;;5.65;1.27;;;;;;;15.39;51.22;98410.31;4903381;29;20032;-63
2024/02/10 07:17:01;;;;;;;1.92;1.05;;;;;;;15.42;52.20;98410.72;4919047;29;20085;-63
2024/02/10 07:19:29;;;;;;;0.90;0.77;;;;;;;15.44;51.47;98410.47;4935913;29;20035;-63
2024/02/10 07:21:58;;;;;;;4.10;1.30;;;;;;;15.49;51.78;98411.53;4902643;29;20122;-63
2024/02/10 07:24:24;;;;;;;0.98;0.63;;;;;;;15.51;51.29;98408.59;4936335;29;20043;-63
2024/02/10 07:26:50;;;;;;;3.08;1.10;;;;;;;15.54;51.28;98414.41;4903070;29;20406;-64
2024/02/10 07:29:16;;;;;;;4.10;2.13;;;;;;;15.57;52.52;98408.56;4903140;29;20106;-64
2024/02/10 07:31:45;;;;;;;1.92;0.90;;;;;;;15.61;52.26;98419.72;4935914;29;20063;-63
2024/02/10 07:34:11;;;;;;;4.18;1.35;;;;;;;15.63;52.14;98423.84;4919404;29;20399;-64
2024/02/10 07:36:37;;;;;;;3.60;1.08;;;;;;;15.66;52.25;98412.63;4936210;29;20095;-64
2024/02/10 07:39:09;;;;;;;1.40;1.10;;;;;;;15.71;51.83;98414.69;4918690;29;20380;-63
2024/02/10 07:41:38;;;;;;;4.37;1.20;;;;;;;15.73;51.29;98410.69;4919923;29;20138;-63
2024/02/10 07:44:05;;;;;;;1.58;1.13;;;;;;;15.77;52.46;98415.66;4919129;29;20365;-63
2024/02/10 07:46:34;;;;;;;5.40;1.17;;;;;;;15.81;51.94;98420.38;4918889;29;20034;-63
2024/02/10 07:49:04;;;;;;;2.40;1.20;;;;;;;15.82;51.68;98416.66;4919139;29;20058;-63
2024/02/10 07:51:31;;;;;;;2.55;1.23;;;;;;;15.86;52.07;98417.84;4918760;28;20040;-63
2024/02/10 07:53:59;;;;;;;2.38;1.33;;;;;;;15.92;52.32;98421.53;4936008;29;20119;-63
2024/02/10 07:56:31;;;;;;;3.03;1.35;;;;;;;15.95;52.41;98418.38;4935768;29;20043;-63
2024/02/10 07:59:02;;;;;;;2.90;1.20;;;;;;;16.00;52.59;98423.94;4927311;29;20051;-63
2024/02/10 08:01:31;;;;;;;3.42;1.17;;;;;;;16.05;52.73;98422.22;4935733;29;20583;-63
2024/02/10 08:03:57;;;;;;;1.27;1.02;;;;;;;16.11;52.17;98420.50;4934250;29;20047;-63
2024/02/10 08:06:32;;;;;;;3.15;1.60;;;;;;;16.16;52.35;98426.06;4936153;29;20024;-63
2024/02/10 08:08:59;;;;;;;2.22;1.30;;;;;;;16.20;52.51;98416.47;4935724;29;20507;-63
2024/02/10 08:11:27;;;;;;;2.28;1.30;;;;;;;16.27;52.39;98420.72;4935766;29;20126;-63
2024/02/10 08:13:56;;;;;;;2.83;1.70;;;;;;;16.33;52.29;98419.03;4935822;29;20036;-63
2024/02/10 08:16:27;;;;;;;1.63;1.30;;;;;;;16.40;52.52;98425.19;4933068;29;20032;-63
2024/02/10 08:18:55;;;;;;;2.63;1.38;;;;;;;16.48;52.47;98432.97;4934852;29;20038;-63
2024/02/10 08:21:24;;;;;;;3.63;1.50;;;;;;;16.55;51.96;98422.13;4935347;29;20054;-62
2024/02/10 08:23:52;;;;;;;3.42;1.70;;;;;;;16.57;51.49;98415.44;4919162;29;20047;-63
2024/02/10 08:26:19;;;;;;;2.13;1.73;;;;;;;16.66;52.03;98419.50;4934350;29;20036;-64
2024/02/10 08:28:50;;;;;;;2.55;1.10;;;;;;;16.73;52.58;98427.50;4934519;29;20044;-68
2024/02/10 08:31:16;;;;;;;4.68;1.58;;;;;;;16.77;52.23;98421.44;4934066;29;20416;-63
2024/02/10 08:33:44;;;;;;;2.97;1.25;;;;;;;16.86;52.73;98424.66;4937716;29;20036;-63
2024/02/10 08:36:13;;;;;;;1.58;1.20;;;;;;;16.91;52.47;98415.84;4939161;29;20566;-63
2024/02/10 08:38:40;;;;;;;1.92;1.30;;;;;;;16.99;52.62;98412.81;4938100;29;20040;-63
2024/02/10 08:41:05;;;;;;;2.95;1.42;;;;;;;17.08;52.47;98408.75;4922051;29;20050;-66
2024/02/10 08:43:30;;;;;;;6.63;1.63;;;;;;;17.17;52.07;98415.47;4921841;29;20411;-64
2024/02/10 08:45:57;;;;;;;2.25;1.33;;;;;;;17.25;52.79;98412.44;4937378;29;20035;-63
2024/02/10 08:48:25;;;;;;;2.58;1.52;;;;;;;17.33;52.75;98406.69;4934791;29;20075;-64
2024/02/10 08:50:50;;;;;;;2.85;1.30;;;;;;;17.40;52.15;98410.09;4939257;29;20040;-64
2024/02/10 08:53:16;;;;;;;1.55;1.13;;;;;;;17.49;52.76;98403.31;4922718;29;20048;-65
2024/02/10 08:55:42;;;;;;;3.53;1.15;;;;;;;17.57;52.45;98410.28;4939252;29;20038;-65
2024/02/10 08:58:08;;;;;;;1.60;1.20;;;;;;;17.67;52.23;98407.84;4938408;29;20047;-64
2024/02/10 09:00:34;;;;;;;2.13;1.40;;;;;;;17.74;51.85;98411.25;4935809;29;20032;-65
2024/02/10 09:02:59;;;;;;;2.60;1.17;;;;;;;17.79;51.65;98423.03;4922367;29;20047;-64
2024/02/10 09:05:26;;;;;;;3.55;1.30;;;;;;;17.82;52.71;98419.03;4921611;29;20499;-64
2024/02/10 09:07:52;;;;;;;2.55;1.20;;;;;;;17.89;52.32;98419.75;4938432;29;20032;-65
2024/02/10 09:10:17;;;;;;;2.33;1.13;;;;;;;17.95;51.78;98413.41;4921530;29;20028;-64
2024/02/10 09:12:44;;;;;;;1.20;1.10;;;;;;;18.02;52.27;98419.50;4938625;29;20493;-64
2024/02/10 09:15:10;;;;;;;2.10;1.70;;;;;;;18.06;51.97;98415.28;4937707;29;20036;-64
2024/02/10 09:17:35;;;;;;;4.60;1.70;;;;;;;18.11;52.22;98414.56;4939223;29;20032;-64
2024/02/10 09:20:01;;;;;;;3.47;1.88;;;;;;;18.15;52.23;98413.84;4938484;29;20441;-65
2024/02/10 09:22:26;;;;;;;3.33;1.60;;;;;;;18.25;52.12;98419.50;4941550;29;20039;-65
2024/02/10 09:24:54;;;;;;;3.47;1.60;;;;;;;18.32;51.81;98419.34;4941714;29;20530;-64
2024/02/10 09:27:20;;;;;;;2.58;1.50;;;;;;;18.38;52.43;98421.13;4939642;29;20032;-65
2024/02/10 09:29:46;;;;;;;3.95;1.92;;;;;;;18.42;51.59;98419.59;4937250;29;20034;-65
2024/02/10 09:32:14;;;;;;;4.07;1.63;;;;;;;18.40;51.34;98421.69;4938170;29;20031;-64
2024/02/10 09:34:40;;;;;;;9.20;1.73;;;;;;;18.43;51.59;98418.50;4937020;29;20044;-65
2024/02/10 09:37:06;;;;;;;1.88;1.30;;;;;;;18.49;51.66;98420.31;4936796;29;20036;-65
2024/02/10 09:39:37;;;;;;;1.52;1.20;;;;;;;18.57;52.02;98418.06;4923101;29;20036;-64
2024/02/10 09:42:08;;;;;;;2.15;1.65;;;;;;;18.67;51.49;98414.75;4914306;29;20540;-65
2024/02/10 09:44:34;;;;;;;5.25;1.63;;;;;;;18.74;51.28;98423.53;4916748;29;20488;-65
2024/02/10 09:47:01;;;;;;;2.30;1.63;;;;;;;18.79;51.42;98426.34;4919795;29;20138;-65
2024/02/10 09:49:27;;;;;;;4.13;1.95;;;;;;;18.87;51.91;98420.53;4904843;29;20032;-65
2024/02/10 09:51:53;;;;;;;3.42;1.67;;;;;;;18.97;51.53;98423.47;4904873;29;20119;-65
2024/02/10 09:54:18;;;;;;;2.00;1.60;;;;;;;19.09;51.36;98416.13;4920575;29;20564;-64
2024/02/10 09:56:44;;;;;;;3.05;1.83;;;;;;;19.44;50.91;98415.94;4920595;29;20031;-64
2024/02/10 09:59:14;;;;;;;3.85;1.75;;;;;;;19.93;49.83;98414.34;4904599;29;20066;-64
2024/02/10 10:01:39;;;;;;;3.00;1.60;;;;;;;20.39;49.63;98413.09;4920441;29;20087;-63
2024/02/10 10:04:10;;;;;;;1.45;1.20;;;;;;;20.81;49.62;98407.94;4904581;29;20032;-64
2024/02/10 10:06:39;;;;;;;4.07;1.73;;;;;;;21.17;48.51;98407.28;4905473;29;20101;-66
2024/02/10 10:09:05;;;;;;;2.45;1.75;;;;;;;21.57;48.10;98406.03;4920740;29;20036;-65
2024/02/10 10:11:33;;;;;;;1.80;1.00;;;;;;;21.88;47.90;98413.41;4920324;29;20043;-64
2024/02/10 10:13:58;;;;;;;2.28;1.20;;;;;;;22.23;48.40;98413.63;4937280;29;20460;-65
2024/02/10 10:16:24;;;;;;;6.05;1.50;;;;;;;22.56;48.19;98418.72;4920215;29;20032;-65
2024/02/10 10:18:52;;;;;;;2.72;1.27;;;;;;;22.83;48.07;98412.34;4937324;29;20441;-65
2024/02/10 10:21:18;;;;;;;3.30;1.27;;;;;;;23.12;46.93;98414.34;4920289;29;20067;-66
2024/02/10 10:23:45;;;;;;;4.72;1.17;;;;;;;23.39;47.56;98418.81;4904448;29;20062;-65
2024/02/10 10:26:12;;;;;;;8.65;1.80;;;;;;;23.59;47.13;98419.63;4937181;29;20090;-66
2024/02/10 10:28:37;;;;;;;2.55;1.17;;;;;;;23.56;47.29;98416.63;4920258;29;20048;-65
2024/02/10 10:31:04;;;;;;;7.60;1.40;;;;;;;23.68;47.10;98417.16;4904007;29;20115;-65
2024/02/10 10:33:30;;;;;;;4.80;1.52;;;;;;;23.83;46.52;98422.66;4937042;29;20031;-65
2024/02/10 10:35:55;;;;;;;4.22;1.10;;;;;;;23.98;46.47;98410.91;4919874;29;20408;-66
2024/02/10 10:38:22;;;;;;;3.72;1.40;;;;;;;24.07;46.22;98414.69;4919984;29;20043;-65
2024/02/10 10:40:51;;;;;;;2.50;1.00;;;;;;;24.06;46.29;98407.59;4903873;29;20040;-66
2024/02/10 10:43:19;;;;;;;2.10;1.23;;;;;;;23.94;46.00;98410.63;4919816;29;20031;-67
2024/02/10 10:45:45;;;;;;;4.47;1.38;;;;;;;23.79;46.36;98407.88;4919626;29;20043;-66
2024/02/10 10:48:10;;;;;;;1.95;1.05;;;;;;;23.61;46.58;98406.53;4936314;29;20051;-66
2024/02/10 10:50:35;;;;;;;2.50;1.10;;;;;;;23.39;46.78;98408.69;4936905;29;20024;-65
2024/02/10 10:53:05;;;;;;;1.40;1.02;;;;;;;23.11;46.48;98401.78;4936868;29;20559;-65
2024/02/10 10:55:32;;;;;;;2.15;1.15;;;;;;;22.82;46.63;98402.50;4936827;28;20043;-66
2024/02/10 10:57:58;;;;;;;3.38;1.00;;;;;;;22.54;46.42;98401.81;4904436;29;20038;-65
2024/02/10 11:00:25;;;;;;;2.28;1.08;;;;;;;22.31;46.80;98402.22;4919593;29;20079;-65
2024/02/10 11:02:52;;;;;;;2.13;0.90;;;;;;;22.09;47.12;98403.44;4936736;29;20411;-65
2024/02/10 11:05:19;;;;;;;1.65;0.90;;;;;;;21.85;46.72;98397.53;4919685;29;20058;-65
2024/02/10 11:07:49;;;;;;;2.47;1.25;;;;;;;21.66;46.44;98402.56;4936214;29;20040;-66
2024/02/10 11:10:38;;;;;;;3.15;1.17;;;;;;;21.47;47.49;98398.56;4919420;29;20059;-65
2024/02/10 11:13:04;;;;;;;4.43;1.05;;;;;;;21.31;47.07;98403.06;4919782;29;20050;-66
2024/02/10 11:15:29;;;;;;;1.83;1.27;;;;;;;21.22;47.52;98398.31;4903356;29;20036;-65
2024/02/10 11:18:01;;;;;;;7.30;1.33;;;;;;;21.13;46.86;98399.88;4903533;29;20453;-66
2024/02/10 11:20:39;;;;;;;5.30;1.20;;;;;;;21.03;47.69;98395.13;4903240;29;20035;-65
2024/02/10 11:23:18;;;;;;;1.77;0.93;;;;;;;20.92;47.55;98398.81;4919660;29;20334;-66
2024/02/10 11:25:44;;;;;;;1.70;1.27;;;;;;;20.87;47.49;98401.47;4918958;29;20074;-65
2024/02/10 11:28:22;;;;;;;2.97;1.17;;;;;;;20.81;48.06;98402.50;4936271;29;20421;-65
2024/02/10 11:30:48;;;;;;;2.03;1.23;;;;;;;20.73;47.28;98405.66;4918955;29;20028;-65
2024/02/10 11:33:19;;;;;;;1.65;0.85;;;;;;;20.69;47.24;98408.06;4918852;29;20032;-66
2024/02/10 11:35:46;;;;;;;2.92;1.70;;;;;;;20.63;48.13;98408.28;4935860;28;20556;-67